Mangum, Oklahoma
Current Conditions -  °F | °C
As of 8:35 PM on Friday 24 Oct 2014 (Local Time) from KAXS Reporting Station
Clear Clear  
Wind Chill: 77°   Ceiling: Unl
Heat Index: 78°   Visibility: 10mi
Dew Point: 56°   Wind: 8mph
Humidity: 48%   Direction: 170°S
Pressure: 30.05"   Gusts: NA
Location:  34.87°N, 99.5°W
Report Text: KAXS 250135Z AUTO 17007KT 10SM CLR 25/13 A3005 RMK AO2 T02490131
Loading
Personal Weather Stations






























Interactive Weather Map
Tropical Storm Tracking
New forecast layout! Learn more

10-Day Weather Forecast

Advertisements
Track Severe Weather on mobile